sensor_id;sensor_type;location;lat;lon;timestamp;pressure;altitude;pressure_sealevel;temperature;humidity
6090;BME280;3073;42.660;23.316;2023-04-16T00:01:27;93982.97;;;24.67;33.21
6090;BME280;3073;42.660;23.316;2023-04-16T00:03:54;93985.78;;;24.90;32.79
6090;BME280;3073;42.660;23.316;2023-04-16T00:06:22;93979.09;;;24.77;32.88
6090;BME280;3073;42.660;23.316;2023-04-16T00:08:49;93983.81;;;25.02;32.61
6090;BME280;3073;42.660;23.316;2023-04-16T00:11:17;93979.72;;;25.01;32.70
6090;BME280;3073;42.660;23.316;2023-04-16T00:13:46;93980.97;;;25.07;32.82
6090;BME280;3073;42.660;23.316;2023-04-16T00:16:13;93975.31;;;25.05;32.80
6090;BME280;3073;42.660;23.316;2023-04-16T00:18:40;93979.38;;;24.87;32.97
6090;BME280;3073;42.660;23.316;2023-04-16T00:21:07;93977.03;;;24.98;32.94
6090;BME280;3073;42.660;23.316;2023-04-16T00:23:35;93979.59;;;25.14;33.03
6090;BME280;3073;42.660;23.316;2023-04-16T00:26:02;93976.63;;;25.31;32.43
6090;BME280;3073;42.660;23.316;2023-04-16T00:28:29;93985.00;;;25.21;32.93
6090;BME280;3073;42.660;23.316;2023-04-16T00:30:56;93980.38;;;24.51;33.96
6090;BME280;3073;42.660;23.316;2023-04-16T00:33:22;93974.59;;;24.15;34.54
6090;BME280;3073;42.660;23.316;2023-04-16T00:35:49;93979.78;;;22.98;35.94
6090;BME280;3073;42.660;23.316;2023-04-16T00:38:16;93982.78;;;23.89;34.82
6090;BME280;3073;42.660;23.316;2023-04-16T00:40:44;93982.97;;;24.08;34.95
6090;BME280;3073;42.660;23.316;2023-04-16T00:43:19;93979.25;;;23.81;35.31
6090;BME280;3073;42.660;23.316;2023-04-16T00:45:47;93976.38;;;24.26;34.40
6090;BME280;3073;42.660;23.316;2023-04-16T00:48:14;93979.25;;;23.41;35.64
6090;BME280;3073;42.660;23.316;2023-04-16T00:50:41;93977.59;;;23.61;35.32
6090;BME280;3073;42.660;23.316;2023-04-16T00:53:08;93971.53;;;23.08;35.89
6090;BME280;3073;42.660;23.316;2023-04-16T00:55:35;93976.22;;;23.27;35.05
6090;BME280;3073;42.660;23.316;2023-04-16T00:58:03;93979.47;;;22.76;35.75
6090;BME280;3073;42.660;23.316;2023-04-16T01:00:30;93977.28;;;23.50;34.79
6090;BME280;3073;42.660;23.316;2023-04-16T01:02:58;93974.56;;;23.23;34.92
6090;BME280;3073;42.660;23.316;2023-04-16T01:05:25;93972.19;;;23.05;35.13
6090;BME280;3073;42.660;23.316;2023-04-16T01:07:52;93975.13;;;23.16;34.79
6090;BME280;3073;42.660;23.316;2023-04-16T01:10:19;93977.38;;;23.42;34.52
6090;BME280;3073;42.660;23.316;2023-04-16T01:12:46;93978.19;;;23.18;34.73
6090;BME280;3073;42.660;23.316;2023-04-16T01:15:14;93981.50;;;23.19;34.44
6090;BME280;3073;42.660;23.316;2023-04-16T01:17:41;93974.84;;;23.70;34.20
6090;BME280;3073;42.660;23.316;2023-04-16T01:20:09;93981.03;;;23.65;34.00
6090;BME280;3073;42.660;23.316;2023-04-16T01:22:38;93974.22;;;23.61;33.88
6090;BME280;3073;42.660;23.316;2023-04-16T01:25:05;93981.84;;;23.41;34.35
6090;BME280;3073;42.660;23.316;2023-04-16T01:27:32;93975.69;;;21.95;36.41
6090;BME280;3073;42.660;23.316;2023-04-16T01:29:58;93969.16;;;21.48;37.30
6090;BME280;3073;42.660;23.316;2023-04-16T01:32:25;93975.81;;;21.37;36.70
6090;BME280;3073;42.660;23.316;2023-04-16T01:34:52;93967.22;;;20.86;37.46
6090;BME280;3073;42.660;23.316;2023-04-16T01:37:19;93963.81;;;21.86;36.18
6090;BME280;3073;42.660;23.316;2023-04-16T01:39:47;93963.88;;;22.31;35.66
6090;BME280;3073;42.660;23.316;2023-04-16T01:42:14;93962.25;;;22.71;35.12
6090;BME280;3073;42.660;23.316;2023-04-16T01:44:41;93956.16;;;22.67;35.14
6090;BME280;3073;42.660;23.316;2023-04-16T01:47:07;93956.44;;;22.08;35.81
6090;BME280;3073;42.660;23.316;2023-04-16T01:49:34;93955.78;;;21.99;35.99
6090;BME280;3073;42.660;23.316;2023-04-16T01:52:01;93952.66;;;22.63;35.25
6090;BME280;3073;42.660;23.316;2023-04-16T01:54:28;93942.50;;;22.94;34.71
6090;BME280;3073;42.660;23.316;2023-04-16T01:56:57;93942.94;;;22.96;34.72
6090;BME280;3073;42.660;23.316;2023-04-16T01:59:23;93952.03;;;23.02;34.71
6090;BME280;3073;42.660;23.316;2023-04-16T02:01:50;93950.31;;;22.94;34.47
6090;BME280;3073;42.660;23.316;2023-04-16T02:04:17;93952.88;;;23.19;34.50
6090;BME280;3073;42.660;23.316;2023-04-16T02:06:44;93948.78;;;23.05;34.72
6090;BME280;3073;42.660;23.316;2023-04-16T02:09:11;93958.63;;;23.24;34.88
6090;BME280;3073;42.660;23.316;2023-04-16T02:11:37;93950.28;;;23.19;35.32
6090;BME280;3073;42.660;23.316;2023-04-16T02:14:06;93961.25;;;23.24;35.05
6090;BME280;3073;42.660;23.316;2023-04-16T02:16:34;93957.63;;;23.29;34.96
6090;BME280;3073;42.660;23.316;2023-04-16T02:19:00;93951.59;;;23.25;35.09
6090;BME280;3073;42.660;23.316;2023-04-16T02:21:28;93945.19;;;23.22;34.89
6090;BME280;3073;42.660;23.316;2023-04-16T02:23:56;93949.44;;;23.15;35.41
6090;BME280;3073;42.660;23.316;2023-04-16T02:26:23;93946.94;;;22.70;35.51
6090;BME280;3073;42.660;23.316;2023-04-16T02:28:50;93946.41;;;23.00;35.27
6090;BME280;3073;42.660;23.316;2023-04-16T02:31:18;93944.00;;;23.20;35.17
6090;BME280;3073;42.660;23.316;2023-04-16T02:33:47;93941.59;;;23.27;35.08
6090;BME280;3073;42.660;23.316;2023-04-16T02:36:13;93944.56;;;22.89;35.48
6090;BME280;3073;42.660;23.316;2023-04-16T02:38:40;93948.56;;;22.86;35.53
6090;BME280;3073;42.660;23.316;2023-04-16T02:41:07;93938.81;;;22.83;35.42
6090;BME280;3073;42.660;23.316;2023-04-16T02:43:34;93940.88;;;23.02;35.39
6090;BME280;3073;42.660;23.316;2023-04-16T02:46:01;93931.31;;;23.18;35.17
6090;BME280;3073;42.660;23.316;2023-04-16T02:48:29;93936.34;;;22.87;35.66
6090;BME280;3073;42.660;23.316;2023-04-16T02:50:56;93937.75;;;22.84;35.68
6090;BME280;3073;42.660;23.316;2023-04-16T02:53:23;93925.94;;;22.75;35.68
6090;BME280;3073;42.660;23.316;2023-04-16T02:55:50;93929.94;;;22.72;35.44
6090;BME280;3073;42.660;23.316;2023-04-16T02:58:18;93928.44;;;22.71;35.46
6090;BME280;3073;42.660;23.316;2023-04-16T03:00:45;93929.06;;;22.80;34.67
6090;BME280;3073;42.660;23.316;2023-04-16T03:03:12;93930.16;;;22.79;34.71
6090;BME280;3073;42.660;23.316;2023-04-16T03:05:40;93926.31;;;22.40;34.83
6090;BME280;3073;42.660;23.316;2023-04-16T03:08:07;93928.81;;;22.37;34.86
6090;BME280;3073;42.660;23.316;2023-04-16T03:10:35;93929.59;;;22.62;34.23
6090;BME280;3073;42.660;23.316;2023-04-16T03:13:02;93929.38;;;22.79;34.31
6090;BME280;3073;42.660;23.316;2023-04-16T03:15:30;93938.06;;;22.95;33.87
6090;BME280;3073;42.660;23.316;2023-04-16T03:17:57;93939.03;;;23.02;33.81
6090;BME280;3073;42.660;23.316;2023-04-16T03:20:23;93934.69;;;22.82;33.82
6090;BME280;3073;42.660;23.316;2023-04-16T03:22:51;93942.50;;;23.06;33.63
6090;BME280;3073;42.660;23.316;2023-04-16T03:25:19;93947.03;;;23.22;33.90
6090;BME280;3073;42.660;23.316;2023-04-16T03:27:45;93940.53;;;23.03;33.96
6090;BME280;3073;42.660;23.316;2023-04-16T03:30:13;93943.34;;;23.23;33.90
6090;BME280;3073;42.660;23.316;2023-04-16T03:32:39;93946.03;;;22.66;34.58
6090;BME280;3073;42.660;23.316;2023-04-16T03:35:07;93939.25;;;22.97;34.06
6090;BME280;3073;42.660;23.316;2023-04-16T03:37:35;93944.22;;;23.02;33.96
6090;BME280;3073;42.660;23.316;2023-04-16T03:40:03;93946.50;;;23.04;34.13
6090;BME280;3073;42.660;23.316;2023-04-16T03:42:31;93948.53;;;22.50;34.93
6090;BME280;3073;42.660;23.316;2023-04-16T03:44:58;93946.13;;;22.33;35.49
6090;BME280;3073;42.660;23.316;2023-04-16T03:47:25;93951.34;;;21.79;36.35
6090;BME280;3073;42.660;23.316;2023-04-16T03:49:52;93948.97;;;20.74;37.69
6090;BME280;3073;42.660;23.316;2023-04-16T03:52:19;93952.25;;;21.63;36.61
6090;BME280;3073;42.660;23.316;2023-04-16T03:54:46;93953.81;;;21.55;36.85
6090;BME280;3073;42.660;23.316;2023-04-16T03:57:14;93953.81;;;21.55;37.09
6090;BME280;3073;42.660;23.316;2023-04-16T03:59:41;93948.06;;;21.91;36.68
6090;BME280;3073;42.660;23.316;2023-04-16T04:02:07;93951.09;;;21.72;37.63
6090;BME280;3073;42.660;23.316;2023-04-16T04:04:34;93957.91;;;22.18;36.84
6090;BME280;3073;42.660;23.316;2023-04-16T04:07:01;93967.38;;;22.47;36.37
6090;BME280;3073;42.660;23.316;2023-04-16T04:09:28;93960.47;;;22.51;36.07
6090;BME280;3073;42.660;23.316;2023-04-16T04:11:55;93965.03;;;22.66;36.06
6090;BME280;3073;42.660;23.316;2023-04-16T04:14:34;93967.00;;;22.69;35.81
6090;BME280;3073;42.660;23.316;2023-04-16T04:17:04;93969.44;;;22.66;35.78
6090;BME280;3073;42.660;23.316;2023-04-16T04:19:31;93974.16;;;22.96;35.42
6090;BME280;3073;42.660;23.316;2023-04-16T04:21:57;93974.81;;;22.93;35.21
6090;BME280;3073;42.660;23.316;2023-04-16T04:24:24;93969.25;;;23.19;34.97
6090;BME280;3073;42.660;23.316;2023-04-16T04:26:51;93974.34;;;23.16;34.97
6090;BME280;3073;42.660;23.316;2023-04-16T04:29:18;93974.94;;;22.85;34.96
6090;BME280;3073;42.660;23.316;2023-04-16T04:31:46;93983.28;;;23.15;34.77
6090;BME280;3073;42.660;23.316;2023-04-16T04:34:13;93992.03;;;22.86;35.14
6090;BME280;3073;42.660;23.316;2023-04-16T04:36:40;93985.22;;;23.18;34.52
6090;BME280;3073;42.660;23.316;2023-04-16T04:39:07;93989.31;;;23.19;34.94
6090;BME280;3073;42.660;23.316;2023-04-16T04:41:33;93980.44;;;23.20;34.79
6090;BME280;3073;42.660;23.316;2023-04-16T04:44:00;93990.84;;;23.44;34.64
6090;BME280;3073;42.660;23.316;2023-04-16T04:46:27;93989.88;;;23.24;34.73
6090;BME280;3073;42.660;23.316;2023-04-16T04:48:55;93983.94;;;23.12;34.72
6090;BME280;3073;42.660;23.316;2023-04-16T04:51:22;93988.78;;;23.37;34.42
6090;BME280;3073;42.660;23.316;2023-04-16T04:53:49;93996.38;;;23.54;34.53
6090;BME280;3073;42.660;23.316;2023-04-16T04:56:16;93986.31;;;23.41;34.58
6090;BME280;3073;42.660;23.316;2023-04-16T04:58:43;93992.81;;;23.35;34.22
6090;BME280;3073;42.660;23.316;2023-04-16T05:01:09;93994.22;;;23.44;34.77
6090;BME280;3073;42.660;23.316;2023-04-16T05:03:36;93988.88;;;23.29;34.81
6090;BME280;3073;42.660;23.316;2023-04-16T05:06:05;93996.06;;;23.44;34.65
6090;BME280;3073;42.660;23.316;2023-04-16T05:08:32;93994.75;;;23.50;34.44
6090;BME280;3073;42.660;23.316;2023-04-16T05:10:59;93990.38;;;23.66;34.29
6090;BME280;3073;42.660;23.316;2023-04-16T05:13:26;93991.63;;;23.84;34.59
6090;BME280;3073;42.660;23.316;2023-04-16T05:15:53;93997.97;;;23.71;34.65
6090;BME280;3073;42.660;23.316;2023-04-16T05:18:20;93997.56;;;22.72;35.32
6090;BME280;3073;42.660;23.316;2023-04-16T05:20:47;93990.28;;;22.21;36.24
6090;BME280;3073;42.660;23.316;2023-04-16T05:23:15;93984.22;;;21.34;37.60
6090;BME280;3073;42.660;23.316;2023-04-16T05:25:41;93993.38;;;21.11;37.77
6090;BME280;3073;42.660;23.316;2023-04-16T05:28:08;93988.44;;;21.18;37.63
6090;BME280;3073;42.660;23.316;2023-04-16T05:30:35;93985.75;;;21.76;36.94
6090;BME280;3073;42.660;23.316;2023-04-16T05:33:02;93976.50;;;22.08;36.48
6090;BME280;3073;42.660;23.316;2023-04-16T05:35:29;93987.25;;;21.36;37.85
6090;BME280;3073;42.660;23.316;2023-04-16T05:37:56;93989.84;;;22.19;36.85
6090;BME280;3073;42.660;23.316;2023-04-16T05:40:24;93990.38;;;22.57;36.44
6090;BME280;3073;42.660;23.316;2023-04-16T05:42:51;93987.53;;;22.62;36.26
6090;BME280;3073;42.660;23.316;2023-04-16T05:45:18;93988.25;;;22.83;36.11
6090;BME280;3073;42.660;23.316;2023-04-16T05:47:45;93994.75;;;23.50;35.16
6090;BME280;3073;42.660;23.316;2023-04-16T05:50:11;93989.13;;;23.88;34.65
6090;BME280;3073;42.660;23.316;2023-04-16T05:52:38;93981.25;;;23.60;34.60
6090;BME280;3073;42.660;23.316;2023-04-16T05:55:05;93987.94;;;22.28;36.63
6090;BME280;3073;42.660;23.316;2023-04-16T05:57:33;93990.03;;;21.72;37.54
6090;BME280;3073;42.660;23.316;2023-04-16T06:00:00;93994.69;;;22.53;36.58
6090;BME280;3073;42.660;23.316;2023-04-16T06:02:28;93990.00;;;23.28;34.98
6090;BME280;3073;42.660;23.316;2023-04-16T06:04:55;93988.72;;;22.40;35.71
6090;BME280;3073;42.660;23.316;2023-04-16T06:07:22;93990.41;;;23.05;35.01
6090;BME280;3073;42.660;23.316;2023-04-16T06:09:49;93996.13;;;23.72;34.25
6090;BME280;3073;42.660;23.316;2023-04-16T06:12:16;93989.84;;;24.28;33.81
6090;BME280;3073;42.660;23.316;2023-04-16T06:14:44;93984.84;;;24.82;32.94
6090;BME280;3073;42.660;23.316;2023-04-16T06:17:11;93983.44;;;25.35;32.28
6090;BME280;3073;42.660;23.316;2023-04-16T06:19:38;93993.34;;;25.61;32.07
6090;BME280;3073;42.660;23.316;2023-04-16T06:22:05;93990.25;;;26.13;31.78
6090;BME280;3073;42.660;23.316;2023-04-16T06:24:32;93992.28;;;26.20;31.36
6090;BME280;3073;42.660;23.316;2023-04-16T06:26:58;93988.13;;;25.80;31.40
6090;BME280;3073;42.660;23.316;2023-04-16T06:29:25;93978.44;;;24.64;32.86
6090;BME280;3073;42.660;23.316;2023-04-16T06:31:54;93978.06;;;25.63;32.03
6090;BME280;3073;42.660;23.316;2023-04-16T06:34:21;93973.22;;;24.80;32.72
6090;BME280;3073;42.660;23.316;2023-04-16T06:36:48;93974.22;;;25.57;31.91
6090;BME280;3073;42.660;23.316;2023-04-16T06:39:15;93976.34;;;25.36;32.46
6090;BME280;3073;42.660;23.316;2023-04-16T06:41:41;93981.38;;;26.37;31.46
6090;BME280;3073;42.660;23.316;2023-04-16T06:44:08;93981.34;;;27.01;30.32
6090;BME280;3073;42.660;23.316;2023-04-16T06:46:35;93985.06;;;27.27;29.90
6090;BME280;3073;42.660;23.316;2023-04-16T06:49:03;93989.66;;;27.89;29.37
6090;BME280;3073;42.660;23.316;2023-04-16T06:51:30;93983.28;;;27.57;29.34
6090;BME280;3073;42.660;23.316;2023-04-16T06:53:57;93986.22;;;27.82;29.51
6090;BME280;3073;42.660;23.316;2023-04-16T06:56:24;93983.13;;;28.06;29.18
6090;BME280;3073;42.660;23.316;2023-04-16T06:58:51;93987.31;;;28.47;28.60
6090;BME280;3073;42.660;23.316;2023-04-16T07:01:18;93987.63;;;28.05;28.85
6090;BME280;3073;42.660;23.316;2023-04-16T07:03:45;93980.03;;;27.41;29.46
6090;BME280;3073;42.660;23.316;2023-04-16T07:06:13;93977.97;;;26.78;30.33
6090;BME280;3073;42.660;23.316;2023-04-16T07:08:40;93977.72;;;27.62;29.41
6090;BME280;3073;42.660;23.316;2023-04-16T07:11:06;93990.59;;;27.74;29.37
6090;BME280;3073;42.660;23.316;2023-04-16T07:13:33;93990.84;;;27.92;29.14
6090;BME280;3073;42.660;23.316;2023-04-16T07:16:00;93993.28;;;28.44;28.66
6090;BME280;3073;42.660;23.316;2023-04-16T07:18:27;93987.41;;;28.58;28.49
6090;BME280;3073;42.660;23.316;2023-04-16T07:20:54;93996.03;;;28.55;28.41
6090;BME280;3073;42.660;23.316;2023-04-16T07:23:22;93989.56;;;27.82;28.63
6090;BME280;3073;42.660;23.316;2023-04-16T07:25:49;93985.59;;;27.92;29.44
6090;BME280;3073;42.660;23.316;2023-04-16T07:28:16;93990.22;;;28.72;28.33
6090;BME280;3073;42.660;23.316;2023-04-16T07:30:42;93991.94;;;28.61;28.58
6090;BME280;3073;42.660;23.316;2023-04-16T07:33:09;93989.06;;;28.73;28.69
6090;BME280;3073;42.660;23.316;2023-04-16T07:35:36;93982.91;;;28.99;28.63
6090;BME280;3073;42.660;23.316;2023-04-16T07:38:03;93977.53;;;29.32;28.13
6090;BME280;3073;42.660;23.316;2023-04-16T07:40:31;93985.63;;;29.71;27.44
6090;BME280;3073;42.660;23.316;2023-04-16T07:42:58;93991.56;;;30.51;27.27
6090;BME280;3073;42.660;23.316;2023-04-16T07:45:25;93989.31;;;30.60;26.66
6090;BME280;3073;42.660;23.316;2023-04-16T07:47:52;93981.81;;;30.55;26.66
6090;BME280;3073;42.660;23.316;2023-04-16T07:50:19;93987.47;;;31.06;26.61
6090;BME280;3073;42.660;23.316;2023-04-16T07:52:46;93987.38;;;29.49;27.71
6090;BME280;3073;42.660;23.316;2023-04-16T07:55:13;93986.56;;;30.10;27.29
6090;BME280;3073;42.660;23.316;2023-04-16T07:57:41;93981.50;;;29.77;27.13
6090;BME280;3073;42.660;23.316;2023-04-16T08:00:08;93983.47;;;29.91;27.62
6090;BME280;3073;42.660;23.316;2023-04-16T08:02:36;93984.44;;;30.76;26.77
6090;BME280;3073;42.660;23.316;2023-04-16T08:05:03;93982.91;;;31.46;26.18
6090;BME280;3073;42.660;23.316;2023-04-16T08:07:30;93989.25;;;31.80;25.78
6090;BME280;3073;42.660;23.316;2023-04-16T08:09:56;93990.75;;;31.81;26.01
6090;BME280;3073;42.660;23.316;2023-04-16T08:12:23;93974.06;;;32.12;25.38
6090;BME280;3073;42.660;23.316;2023-04-16T08:14:51;93979.38;;;32.75;24.99
6090;BME280;3073;42.660;23.316;2023-04-16T08:17:18;93981.06;;;31.32;26.04
6090;BME280;3073;42.660;23.316;2023-04-16T08:19:45;93982.94;;;32.43;25.29
6090;BME280;3073;42.660;23.316;2023-04-16T08:22:12;93976.44;;;33.13;24.97
6090;BME280;3073;42.660;23.316;2023-04-16T08:24:39;93986.25;;;33.13;24.87
6090;BME280;3073;42.660;23.316;2023-04-16T08:27:06;93975.19;;;29.92;27.51
6090;BME280;3073;42.660;23.316;2023-04-16T08:29:33;93974.28;;;27.05;30.55
6090;BME280;3073;42.660;23.316;2023-04-16T08:32:01;93970.28;;;28.31;29.45
6090;BME280;3073;42.660;23.316;2023-04-16T08:34:28;93966.34;;;28.91;28.82
6090;BME280;3073;42.660;23.316;2023-04-16T08:36:54;93965.63;;;28.98;28.70
6090;BME280;3073;42.660;23.316;2023-04-16T08:39:21;93961.31;;;28.72;28.75
6090;BME280;3073;42.660;23.316;2023-04-16T08:41:49;93956.78;;;29.24;28.54
6090;BME280;3073;42.660;23.316;2023-04-16T08:44:19;93950.00;;;29.84;27.67
6090;BME280;3073;42.660;23.316;2023-04-16T08:46:47;93952.06;;;30.86;26.60
6090;BME280;3073;42.660;23.316;2023-04-16T08:49:16;93953.97;;;30.79;26.83
6090;BME280;3073;42.660;23.316;2023-04-16T08:51:48;93958.09;;;30.48;27.23
6090;BME280;3073;42.660;23.316;2023-04-16T08:54:23;93947.94;;;30.78;26.72
6090;BME280;3073;42.660;23.316;2023-04-16T08:56:57;93948.69;;;30.96;26.80
6090;BME280;3073;42.660;23.316;2023-04-16T08:59:24;93945.63;;;31.33;26.36
6090;BME280;3073;42.660;23.316;2023-04-16T09:01:52;93942.28;;;31.11;26.72
6090;BME280;3073;42.660;23.316;2023-04-16T09:04:24;93946.25;;;29.92;27.31
6090;BME280;3073;42.660;23.316;2023-04-16T09:06:52;93942.94;;;30.17;27.86
6090;BME280;3073;42.660;23.316;2023-04-16T09:09:20;93931.28;;;30.14;27.25
6090;BME280;3073;42.660;23.316;2023-04-16T09:11:50;93932.50;;;29.41;28.02
6090;BME280;3073;42.660;23.316;2023-04-16T09:14:17;93939.56;;;30.27;27.76
6090;BME280;3073;42.660;23.316;2023-04-16T09:16:44;93937.41;;;31.06;27.30
6090;BME280;3073;42.660;23.316;2023-04-16T09:19:12;93944.78;;;29.95;27.80
6090;BME280;3073;42.660;23.316;2023-04-16T09:21:41;93944.59;;;32.76;25.84
6090;BME280;3073;42.660;23.316;2023-04-16T09:24:08;93933.38;;;33.84;25.01
6090;BME280;3073;42.660;23.316;2023-04-16T09:26:35;93938.78;;;34.04;24.31
6090;BME280;3073;42.660;23.316;2023-04-16T09:29:02;93937.97;;;35.34;23.44
6090;BME280;3073;42.660;23.316;2023-04-16T09:31:29;93938.00;;;35.10;23.32
6090;BME280;3073;42.660;23.316;2023-04-16T09:34:02;93942.66;;;36.08;23.01
6090;BME280;3073;42.660;23.316;2023-04-16T09:36:30;93938.59;;;35.22;23.53
6090;BME280;3073;42.660;23.316;2023-04-16T09:38:58;93940.66;;;35.73;23.02
6090;BME280;3073;42.660;23.316;2023-04-16T09:41:26;93930.69;;;33.17;24.17
6090;BME280;3073;42.660;23.316;2023-04-16T09:43:54;93931.75;;;32.20;25.40
6090;BME280;3073;42.660;23.316;2023-04-16T09:46:22;93927.13;;;32.38;25.37
6090;BME280;3073;42.660;23.316;2023-04-16T09:48:49;93933.44;;;31.85;25.31
6090;BME280;3073;42.660;23.316;2023-04-16T09:51:16;93933.63;;;32.23;25.18
6090;BME280;3073;42.660;23.316;2023-04-16T09:53:43;93920.47;;;32.16;24.86
6090;BME280;3073;42.660;23.316;2023-04-16T09:56:11;93928.00;;;32.21;25.25
6090;BME280;3073;42.660;23.316;2023-04-16T09:58:38;93923.47;;;30.63;26.56
6090;BME280;3073;42.660;23.316;2023-04-16T10:01:07;93922.63;;;31.44;25.85
6090;BME280;3073;42.660;23.316;2023-04-16T10:03:35;93908.69;;;29.95;26.95
6090;BME280;3073;42.660;23.316;2023-04-16T10:06:07;93910.47;;;29.70;27.84
6090;BME280;3073;42.660;23.316;2023-04-16T10:08:35;93904.72;;;29.47;27.46
6090;BME280;3073;42.660;23.316;2023-04-16T10:11:02;93909.53;;;30.88;26.79
6090;BME280;3073;42.660;23.316;2023-04-16T10:13:30;93907.03;;;27.73;29.82
6090;BME280;3073;42.660;23.316;2023-04-16T10:15:57;93906.63;;;27.67;30.06
6090;BME280;3073;42.660;23.316;2023-04-16T10:18:25;93896.63;;;28.57;29.58
6090;BME280;3073;42.660;23.316;2023-04-16T10:20:53;93900.50;;;30.50;27.23
6090;BME280;3073;42.660;23.316;2023-04-16T10:23:20;93889.97;;;30.96;26.60
6090;BME280;3073;42.660;23.316;2023-04-16T10:25:48;93901.13;;;29.07;28.18
6090;BME280;3073;42.660;23.316;2023-04-16T10:28:15;93897.44;;;29.98;27.55
6090;BME280;3073;42.660;23.316;2023-04-16T10:30:46;93888.34;;;28.51;28.54
6090;BME280;3073;42.660;23.316;2023-04-16T10:33:19;93883.34;;;29.48;27.77
6090;BME280;3073;42.660;23.316;2023-04-16T10:35:46;93883.13;;;31.20;26.72
6090;BME280;3073;42.660;23.316;2023-04-16T10:38:26;93880.19;;;32.04;26.22
6090;BME280;3073;42.660;23.316;2023-04-16T10:41:02;93885.09;;;30.52;26.92
6090;BME280;3073;42.660;23.316;2023-04-16T10:43:29;93884.44;;;31.81;26.05
6090;BME280;3073;42.660;23.316;2023-04-16T10:46:16;93882.69;;;33.86;24.17
6090;BME280;3073;42.660;23.316;2023-04-16T10:48:43;93881.31;;;35.01;23.69
6090;BME280;3073;42.660;23.316;2023-04-16T10:51:23;93883.34;;;32.37;25.35
6090;BME280;3073;42.660;23.316;2023-04-16T10:53:53;93882.22;;;33.27;24.73
6090;BME280;3073;42.660;23.316;2023-04-16T10:56:24;93880.13;;;34.59;23.79
6090;BME280;3073;42.660;23.316;2023-04-16T10:58:52;93878.72;;;35.60;22.74
6090;BME280;3073;42.660;23.316;2023-04-16T11:01:29;93878.13;;;34.40;23.36
6090;BME280;3073;42.660;23.316;2023-04-16T11:03:57;93873.16;;;34.69;22.89
6090;BME280;3073;42.660;23.316;2023-04-16T11:06:27;93866.53;;;34.30;23.73
6090;BME280;3073;42.660;23.316;2023-04-16T11:08:54;93874.13;;;35.80;22.35
6090;BME280;3073;42.660;23.316;2023-04-16T11:11:21;93865.03;;;34.56;22.96
6090;BME280;3073;42.660;23.316;2023-04-16T11:13:48;93863.97;;;35.59;22.38
6090;BME280;3073;42.660;23.316;2023-04-16T11:16:15;93859.94;;;35.87;22.34
6090;BME280;3073;42.660;23.316;2023-04-16T11:18:45;93857.94;;;33.69;23.43
6090;BME280;3073;42.660;23.316;2023-04-16T11:21:12;93850.19;;;34.35;22.97
6090;BME280;3073;42.660;23.316;2023-04-16T11:23:46;93854.44;;;31.39;25.63
6090;BME280;3073;42.660;23.316;2023-04-16T11:26:25;93848.88;;;31.99;25.24
6090;BME280;3073;42.660;23.316;2023-04-16T11:28:53;93839.47;;;28.91;28.08
6090;BME280;3073;42.660;23.316;2023-04-16T11:31:20;93839.53;;;30.37;26.63
6090;BME280;3073;42.660;23.316;2023-04-16T11:33:49;93840.38;;;28.58;28.95
6090;BME280;3073;42.660;23.316;2023-04-16T11:36:16;93834.47;;;27.80;29.64
6090;BME280;3073;42.660;23.316;2023-04-16T11:38:43;93830.81;;;29.80;27.59
6090;BME280;3073;42.660;23.316;2023-04-16T11:41:10;93826.66;;;28.82;28.11
6090;BME280;3073;42.660;23.316;2023-04-16T11:43:36;93827.13;;;27.96;29.09
6090;BME280;3073;42.660;23.316;2023-04-16T11:46:05;93828.31;;;28.50;28.75
6090;BME280;3073;42.660;23.316;2023-04-16T11:48:52;93819.19;;;28.33;28.99
6090;BME280;3073;42.660;23.316;2023-04-16T11:51:19;93819.34;;;28.51;28.61
6090;BME280;3073;42.660;23.316;2023-04-16T11:53:48;93816.81;;;29.34;28.21
6090;BME280;3073;42.660;23.316;2023-04-16T11:56:15;93820.69;;;30.85;26.86
6090;BME280;3073;42.660;23.316;2023-04-16T11:59:05;93814.34;;;29.94;28.36
6090;BME280;3073;42.660;23.316;2023-04-16T12:01:33;93812.31;;;27.74;29.90
6090;BME280;3073;42.660;23.316;2023-04-16T12:04:02;93799.44;;;28.02;30.08
6090;BME280;3073;42.660;23.316;2023-04-16T12:06:29;93798.84;;;28.20;29.07
6090;BME280;3073;42.660;23.316;2023-04-16T12:08:57;93795.44;;;29.56;27.97
6090;BME280;3073;42.660;23.316;2023-04-16T12:11:37;93792.66;;;29.10;28.59
6090;BME280;3073;42.660;23.316;2023-04-16T12:14:07;93787.94;;;29.51;28.22
6090;BME280;3073;42.660;23.316;2023-04-16T12:16:34;93783.50;;;30.26;27.41
6090;BME280;3073;42.660;23.316;2023-04-16T12:19:03;93775.66;;;28.83;28.71
6090;BME280;3073;42.660;23.316;2023-04-16T12:21:40;93785.00;;;30.38;27.60
6090;BME280;3073;42.660;23.316;2023-04-16T12:24:08;93780.06;;;27.37;30.77
6090;BME280;3073;42.660;23.316;2023-04-16T12:26:41;93782.84;;;29.00;28.84
6090;BME280;3073;42.660;23.316;2023-04-16T12:29:15;93778.50;;;29.36;28.20
6090;BME280;3073;42.660;23.316;2023-04-16T12:31:43;93775.69;;;27.44;30.71
6090;BME280;3073;42.660;23.316;2023-04-16T12:34:11;93775.25;;;28.23;29.96
6090;BME280;3073;42.660;23.316;2023-04-16T12:36:39;93769.13;;;28.59;29.77
6090;BME280;3073;42.660;23.316;2023-04-16T12:39:07;93774.28;;;26.87;31.32
6090;BME280;3073;42.660;23.316;2023-04-16T12:41:36;93768.25;;;26.57;32.17
6090;BME280;3073;42.660;23.316;2023-04-16T12:44:04;93764.28;;;26.40;32.25
6090;BME280;3073;42.660;23.316;2023-04-16T12:46:34;93757.56;;;26.17;32.52
6090;BME280;3073;42.660;23.316;2023-04-16T12:49:01;93759.44;;;27.32;31.63
6090;BME280;3073;42.660;23.316;2023-04-16T12:51:30;93765.00;;;26.67;32.36
6090;BME280;3073;42.660;23.316;2023-04-16T12:53:57;93762.06;;;27.72;30.84
6090;BME280;3073;42.660;23.316;2023-04-16T12:56:24;93764.63;;;26.65;32.21
6090;BME280;3073;42.660;23.316;2023-04-16T12:58:50;93762.09;;;27.39;33.45
6090;BME280;3073;42.660;23.316;2023-04-16T13:01:17;93751.97;;;27.00;34.13
6090;BME280;3073;42.660;23.316;2023-04-16T13:03:44;93746.53;;;27.49;34.30
6090;BME280;3073;42.660;23.316;2023-04-16T13:06:12;93741.28;;;27.49;35.29
6090;BME280;3073;42.660;23.316;2023-04-16T13:08:42;93742.63;;;27.73;35.83
6090;BME280;3073;42.660;23.316;2023-04-16T13:11:09;93730.63;;;26.98;36.44
6090;BME280;3073;42.660;23.316;2023-04-16T13:13:36;93739.13;;;26.88;35.44